Time;durP1;ratioP1;P1;durP2;ratioP2;P2;SDS_P1;SDS_P2;PMS_P1;PMS_P2;Temp;Humidity;BMP_temperature;BMP_pressure;BME280_temperature;BME280_humidity;BME280_pressure;Samples;Min_cycle;Max_cycle;Signal;HPM_P1;HPM_P2
2022/03/25 00:02:35;;;;;;;13.87;10.77;;;;;;;2.90;79.70;95414.28;5054152;28;20217;-66
2022/03/25 00:05:21;;;;;;;16.97;9.47;;;;;;;2.99;79.11;95421.94;5054061;28;20197;-66
2022/03/25 00:08:08;;;;;;;13.97;8.70;;;;;;;2.89;79.79;95412.78;5059502;28;20206;-66
2022/03/25 00:10:54;;;;;;;14.27;9.33;;;;;;;3.05;78.10;95413.06;5065676;28;20196;-66
2022/03/25 00:13:39;;;;;;;14.70;10.53;;;;;;;3.05;77.11;95412.28;5061887;28;20819;-66
2022/03/25 00:16:25;;;;;;;14.97;9.20;;;;;;;2.98;77.20;95415.03;5055182;28;20299;-66
2022/03/25 00:19:12;;;;;;;17.37;11.23;;;;;;;2.89;79.53;95415.47;5057728;28;20193;-66
2022/03/25 00:21:58;;;;;;;22.83;13.20;;;;;;;2.94;81.22;95417.75;5049215;28;20679;-66
2022/03/25 00:24:44;;;;;;;26.37;13.23;;;;;;;3.22;79.45;95412.16;5064513;28;20209;-66
2022/03/25 00:27:31;;;;;;;19.27;10.30;;;;;;;2.99;77.51;95409.22;5072183;28;20193;-66
2022/03/25 00:30:17;;;;;;;13.27;10.17;;;;;;;2.88;78.71;95411.25;5084182;28;20192;-66
2022/03/25 00:33:04;;;;;;;12.13;9.37;;;;;;;2.40;79.79;95408.41;5051136;28;20260;-66
2022/03/25 00:35:50;;;;;;;11.33;8.43;;;;;;;2.21;81.65;95405.41;5071841;28;20704;-66
2022/03/25 00:38:37;;;;;;;12.27;8.67;;;;;;;2.06;83.87;95402.00;5058312;28;20225;-66
2022/03/25 00:41:23;;;;;;;12.87;8.80;;;;;;;2.07;83.52;95397.41;5084192;28;20620;-66
2022/03/25 00:44:09;;;;;;;16.33;8.57;;;;;;;1.92;84.49;95412.03;5071459;28;20513;-66
2022/03/25 00:46:56;;;;;;;15.07;8.13;;;;;;;2.04;85.28;95408.94;5059512;28;20214;-66
2022/03/25 00:49:42;;;;;;;16.23;9.40;;;;;;;2.35;85.90;95408.06;5080230;28;21041;-66
2022/03/25 00:52:29;;;;;;;12.50;8.40;;;;;;;2.32;84.27;95401.50;5070464;28;20221;-66
2022/03/25 00:55:14;;;;;;;13.87;8.43;;;;;;;2.44;83.72;95398.38;5041804;28;20224;-66
2022/03/25 00:58:01;;;;;;;12.23;8.73;;;;;;;2.06;83.17;95404.69;5078696;28;20201;-66
2022/03/25 01:00:47;;;;;;;11.73;8.37;;;;;;;1.97;85.65;95407.03;5091455;28;20237;-66
2022/03/25 01:03:34;;;;;;;13.17;9.10;;;;;;;2.26;85.04;95396.91;5086752;28;20216;-66
2022/03/25 01:06:21;;;;;;;17.10;8.30;;;;;;;2.08;83.20;95407.00;5067907;28;20221;-66
2022/03/25 01:09:07;;;;;;;16.20;9.60;;;;;;;2.00;86.03;95397.41;5072043;28;20852;-66
2022/03/25 01:11:54;;;;;;;10.60;8.50;;;;;;;2.20;84.65;95393.88;5076569;28;20310;-66
2022/03/25 01:14:40;;;;;;;12.90;8.63;;;;;;;2.04;83.92;95409.72;5052871;28;20232;-66
2022/03/25 01:17:27;;;;;;;15.57;8.57;;;;;;;1.65;85.96;95400.97;5066451;28;20202;-66
2022/03/25 01:20:13;;;;;;;13.30;9.40;;;;;;;1.84;86.78;95399.75;5077053;28;20696;-66
2022/03/25 01:23:00;;;;;;;13.10;9.30;;;;;;;1.79;86.67;95406.31;5061726;28;20217;-66
2022/03/25 01:25:46;;;;;;;12.93;9.37;;;;;;;2.06;86.46;95403.94;5057313;28;20181;-66
2022/03/25 01:28:34;;;;;;;14.67;9.40;;;;;;;2.00;85.01;95398.16;5064211;28;20642;-66
2022/03/25 01:31:20;;;;;;;15.93;9.83;;;;;;;1.90;86.71;95401.66;5077592;28;20271;-66
2022/03/25 01:34:06;;;;;;;15.23;10.67;;;;;;;1.75;87.14;95386.69;5079424;28;20193;-66
2022/03/25 01:36:52;;;;;;;14.70;10.30;;;;;;;1.56;86.78;95395.19;5065051;28;20249;-66
2022/03/25 01:39:38;;;;;;;15.80;9.70;;;;;;;1.28;89.80;95395.22;5069551;28;20193;-66
2022/03/25 01:42:31;;;;;;;14.70;8.67;;;;;;;1.14;90.94;95397.91;5087729;28;20217;-66
2022/03/25 01:45:34;;;;;;;17.97;9.20;;;;;;;1.12;92.19;95394.88;5092011;28;20193;-66
2022/03/25 01:48:21;;;;;;;11.17;8.43;;;;;;;1.08;93.16;95388.72;5067654;28;20199;-66
2022/03/25 01:51:07;;;;;;;14.07;9.13;;;;;;;1.01;92.00;95396.78;5050886;28;20692;-66
2022/03/25 01:53:53;;;;;;;13.20;9.17;;;;;;;1.19;92.44;95382.16;5024733;28;20201;-66
2022/03/25 01:56:39;;;;;;;14.37;8.73;;;;;;;1.22;91.20;95384.09;5065561;28;20299;-66
2022/03/25 01:59:25;;;;;;;13.37;9.77;;;;;;;1.05;92.88;95379.47;5056774;28;20679;-66
2022/03/25 02:02:11;;;;;;;13.40;9.90;;;;;;;1.06;92.71;95381.03;5049536;28;20218;-66
2022/03/25 02:04:59;;;;;;;17.40;8.93;;;;;;;1.12;92.25;95381.41;5068941;28;20208;-66
2022/03/25 02:07:46;;;;;;;14.17;8.73;;;;;;;1.10;92.14;95386.41;5068361;28;20217;-66
2022/03/25 02:10:32;;;;;;;17.43;9.63;;;;;;;0.92;93.62;95381.03;5082208;28;20673;-66
2022/03/25 02:13:18;;;;;;;12.60;9.37;;;;;;;0.85;93.91;95383.69;5069154;28;20213;-66
2022/03/25 02:16:08;;;;;;;13.23;9.03;;;;;;;0.88;94.04;95382.19;5035543;28;20282;-66
2022/03/25 02:18:55;;;;;;;13.80;9.13;;;;;;;1.09;93.48;95382.16;5061223;28;20518;-66
2022/03/25 02:21:41;;;;;;;11.33;8.63;;;;;;;0.91;93.57;95381.41;5067030;28;20217;-66
2022/03/25 02:24:30;;;;;;;15.37;9.53;;;;;;;0.73;95.42;95376.00;5066259;28;20266;-66
2022/03/25 02:27:17;;;;;;;12.87;8.27;;;;;;;0.83;95.22;95396.00;5076748;28;20251;-66
2022/03/25 02:30:07;;;;;;;14.53;8.83;;;;;;;0.79;94.96;95387.16;5066700;28;20229;-66
2022/03/25 02:32:57;;;;;;;12.23;9.07;;;;;;;0.99;93.65;95385.63;5083104;28;20669;-66
2022/03/25 02:35:50;;;;;;;14.93;8.40;;;;;;;0.70;95.62;95386.75;5071438;28;20226;-66
2022/03/25 02:38:37;;;;;;;14.03;9.53;;;;;;;0.59;96.99;95383.28;5063631;28;20595;-66
2022/03/25 02:41:23;;;;;;;10.77;8.17;;;;;;;0.51;96.90;95385.19;5066426;28;20202;-66
2022/03/25 02:44:11;;;;;;;13.93;8.50;;;;;;;0.68;96.64;95384.44;5048276;28;20229;-66
2022/03/25 02:47:00;;;;;;;16.63;9.80;;;;;;;0.70;95.26;95384.06;5037582;28;20186;-66
2022/03/25 02:49:47;;;;;;;13.20;9.43;;;;;;;0.72;95.38;95389.81;5078399;28;20251;-66
2022/03/25 02:52:33;;;;;;;15.50;10.17;;;;;;;0.60;95.98;95379.44;5067143;28;20245;-66
2022/03/25 02:55:18;;;;;;;14.93;9.00;;;;;;;0.51;96.45;95389.81;5068750;28;20269;-66
2022/03/25 02:58:05;;;;;;;15.20;10.20;;;;;;;0.56;97.02;95389.44;5078088;28;20196;-66
2022/03/25 03:00:50;;;;;;;13.60;9.20;;;;;;;0.75;98.04;95386.38;5067111;28;20220;-66
2022/03/25 03:03:36;;;;;;;14.83;9.20;;;;;;;1.06;95.72;95385.63;5072339;28;20335;-66
2022/03/25 03:06:22;;;;;;;14.60;9.20;;;;;;;1.31;94.52;95382.94;5076951;28;20571;-66
2022/03/25 03:09:08;;;;;;;18.33;10.13;;;;;;;1.26;93.30;95381.41;5071420;28;20193;-65
2022/03/25 03:11:54;;;;;;;13.40;9.47;;;;;;;1.29;92.19;95386.00;5067521;28;20216;-66
2022/03/25 03:14:40;;;;;;;14.43;9.40;;;;;;;0.97;91.67;95377.16;5078857;28;20198;-65
2022/03/25 03:17:26;;;;;;;12.20;9.20;;;;;;;0.52;95.52;95383.28;5060515;28;20271;-66
2022/03/25 03:20:16;;;;;;;12.37;9.43;;;;;;;0.33;97.41;95384.38;5080536;28;20258;-66
2022/03/25 03:23:02;;;;;;;15.93;8.80;;;;;;;0.32;98.88;95387.44;5068407;28;20288;-66
2022/03/25 03:25:48;;;;;;;10.57;8.27;;;;;;;0.26;98.97;95384.34;5087373;28;20185;-66
2022/03/25 03:28:35;;;;;;;14.73;8.90;;;;;;;0.15;100.00;95380.88;5087512;28;20231;-66
2022/03/25 03:31:20;;;;;;;14.10;8.73;;;;;;;0.43;99.60;95386.31;5081758;28;20189;-66
2022/03/25 03:34:06;;;;;;;11.43;8.63;;;;;;;0.58;99.53;95377.13;5056004;28;20198;-66
2022/03/25 03:36:52;;;;;;;14.30;9.00;;;;;;;0.64;97.63;95380.22;5062563;28;20789;-66
2022/03/25 03:39:38;;;;;;;12.17;8.77;;;;;;;0.45;97.24;95378.66;5077036;28;20196;-66
2022/03/25 03:42:24;;;;;;;12.30;9.33;;;;;;;0.24;99.33;95378.59;5060548;28;20225;-66
2022/03/25 03:45:10;;;;;;;14.50;9.23;;;;;;;0.13;100.00;95377.00;5068800;28;20545;-66
2022/03/25 03:47:56;;;;;;;11.17;8.63;;;;;;;0.24;100.00;95389.31;5067159;28;20189;-66
2022/03/25 03:50:42;;;;;;;13.03;9.13;;;;;;;0.23;100.00;95379.75;5077936;28;20878;-66
2022/03/25 03:53:28;;;;;;;10.80;8.17;;;;;;;0.55;100.00;95383.28;5052109;28;20228;-66
2022/03/25 03:56:14;;;;;;;11.20;7.87;;;;;;;0.43;97.69;95382.84;5052784;28;20210;-66
2022/03/25 03:59:00;;;;;;;10.53;8.17;;;;;;;0.51;98.32;95384.44;5088461;28;20182;-66
2022/03/25 04:01:46;;;;;;;15.93;8.27;;;;;;;0.77;97.24;95384.84;5087092;28;20288;-66
2022/03/25 04:04:32;;;;;;;12.73;8.70;;;;;;;0.32;97.54;95382.84;5052410;28;20274;-66
2022/03/25 04:07:19;;;;;;;16.37;8.67;;;;;;;0.28;99.38;95378.59;5054725;28;20197;-66
2022/03/25 04:10:05;;;;;;;14.30;9.43;;;;;;;0.30;99.41;95373.63;5066531;28;20213;-66
2022/03/25 04:12:50;;;;;;;13.03;8.00;;;;;;;0.50;98.07;95382.88;5052328;28;20546;-66
2022/03/25 04:15:36;;;;;;;11.73;8.63;;;;;;;0.61;98.21;95373.69;5051734;28;20217;-66
2022/03/25 04:18:23;;;;;;;12.17;8.57;;;;;;;0.79;96.76;95384.47;5055270;28;20193;-66
2022/03/25 04:21:08;;;;;;;11.27;8.67;;;;;;;0.58;97.57;95379.81;5063335;28;20271;-66
2022/03/25 04:23:54;;;;;;;13.43;8.30;;;;;;;0.21;97.95;95376.66;5078989;28;20202;-66
2022/03/25 04:26:40;;;;;;;11.83;8.20;;;;;;;0.03;100.00;95373.91;5070625;28;20196;-66
2022/03/25 04:29:26;;;;;;;12.23;8.60;;;;;;;0.26;100.00;95362.88;5072309;28;20193;-66
2022/03/25 04:32:12;;;;;;;13.10;8.70;;;;;;;0.46;100.00;95377.50;5066545;28;20209;-66
2022/03/25 04:34:58;;;;;;;12.80;8.33;;;;;;;0.22;100.00;95377.44;5064318;28;20243;-66
2022/03/25 04:37:44;;;;;;;13.87;8.80;;;;;;;-0.12;100.00;95368.88;5071160;28;20253;-66
2022/03/25 04:40:30;;;;;;;11.57;7.90;;;;;;;-0.20;100.00;95368.06;5061196;28;20194;-66
2022/03/25 04:43:16;;;;;;;10.57;8.20;;;;;;;-0.18;100.00;95370.38;5079779;28;20296;-66
2022/03/25 04:46:03;;;;;;;13.30;8.87;;;;;;;-0.19;100.00;95364.22;5067747;28;20287;-66
2022/03/25 04:48:48;;;;;;;13.13;8.17;;;;;;;-0.10;100.00;95375.41;5063911;28;20222;-66
2022/03/25 04:51:35;;;;;;;14.07;8.90;;;;;;;-0.23;100.00;95371.50;5069609;28;20735;-66
2022/03/25 04:54:21;;;;;;;17.67;9.20;;;;;;;-0.20;100.00;95369.97;5083108;28;20232;-66
2022/03/25 04:57:06;;;;;;;11.50;9.13;;;;;;;-0.23;100.00;95363.47;5065870;28;20241;-66
2022/03/25 04:59:53;;;;;;;12.60;8.93;;;;;;;-0.30;100.00;95366.09;5058789;28;20664;-66
2022/03/25 05:02:38;;;;;;;12.73;8.07;;;;;;;-0.41;100.00;95378.69;5067725;28;20214;-65
2022/03/25 05:05:25;;;;;;;12.23;8.43;;;;;;;-0.51;100.00;95363.28;5051688;28;20201;-65
2022/03/25 05:08:11;;;;;;;14.97;8.47;;;;;;;-0.46;100.00;95373.66;5066151;28;20618;-65
2022/03/25 05:10:57;;;;;;;11.23;8.60;;;;;;;-0.41;100.00;95378.69;5064464;28;20204;-65
2022/03/25 05:13:43;;;;;;;11.53;8.87;;;;;;;-0.47;100.00;95374.81;5085620;28;20218;-65
2022/03/25 05:16:29;;;;;;;11.70;8.03;;;;;;;-0.44;100.00;95379.44;5068474;28;20707;-65
2022/03/25 05:19:15;;;;;;;13.73;7.90;;;;;;;-0.41;100.00;95388.66;5084521;28;20209;-65
2022/03/25 05:22:00;;;;;;;11.47;8.37;;;;;;;-0.37;100.00;95390.22;5071026;28;20210;-65
2022/03/25 05:24:46;;;;;;;14.43;8.60;;;;;;;-0.30;100.00;95387.56;5060696;28;20291;-66
2022/03/25 05:27:52;;;;;;;14.40;8.70;;;;;;;0.26;100.00;95389.72;5055752;28;20255;-66
2022/03/25 05:30:39;;;;;;;15.27;8.70;;;;;;;0.43;100.00;95389.00;5047362;28;20734;-66
2022/03/25 05:33:24;;;;;;;15.03;8.70;;;;;;;0.30;100.00;95387.81;5080463;28;20224;-66
2022/03/25 05:36:10;;;;;;;11.57;8.10;;;;;;;0.41;100.00;95387.88;5056929;28;20217;-66
2022/03/25 05:38:56;;;;;;;13.77;8.90;;;;;;;0.51;100.00;95395.19;5062414;28;20201;-66
2022/03/25 05:41:43;;;;;;;13.87;8.37;;;;;;;0.26;100.00;95397.00;5087909;28;20254;-66
2022/03/25 05:44:30;;;;;;;18.00;9.67;;;;;;;0.33;100.00;95392.44;5035638;28;20220;-66
2022/03/25 05:47:16;;;;;;;12.13;8.60;;;;;;;0.37;100.00;95403.19;5069740;28;20213;-66
2022/03/25 05:50:07;;;;;;;13.53;9.00;;;;;;;0.32;100.00;95398.19;5071396;28;20623;-66
2022/03/25 05:52:53;;;;;;;13.87;7.80;;;;;;;0.36;100.00;95404.31;5065035;28;20765;-66
2022/03/25 05:55:39;;;;;;;15.70;8.03;;;;;;;0.21;100.00;95408.88;5085882;28;20323;-66
2022/03/25 05:58:25;;;;;;;15.87;8.83;;;;;;;0.28;100.00;95398.19;5074680;28;20266;-66
2022/03/25 06:01:13;;;;;;;13.63;9.03;;;;;;;0.28;100.00;95400.09;5064352;28;20202;-66
2022/03/25 06:03:59;;;;;;;11.83;8.73;;;;;;;0.59;100.00;95405.56;5078593;28;20304;-66
2022/03/25 06:06:44;;;;;;;14.83;9.60;;;;;;;0.84;100.00;95410.97;5078675;28;20198;-66
2022/03/25 06:09:30;;;;;;;14.77;9.20;;;;;;;1.02;100.00;95404.47;5069418;28;20205;-66
2022/03/25 06:12:16;;;;;;;17.20;8.03;;;;;;;0.99;99.49;95407.13;5074967;28;20232;-66
2022/03/25 06:15:04;;;;;;;16.00;9.50;;;;;;;1.18;100.00;95404.09;5084900;28;20654;-66
2022/03/25 06:17:53;;;;;;;15.33;9.40;;;;;;;1.26;99.29;95413.69;5058466;28;20539;-66
2022/03/25 06:20:39;;;;;;;12.17;8.60;;;;;;;1.44;99.80;95405.59;5074091;28;20271;-66
2022/03/25 06:23:25;;;;;;;10.60;8.30;;;;;;;1.76;98.35;95414.41;5061721;28;20209;-66
2022/03/25 06:26:11;;;;;;;11.93;8.37;;;;;;;1.98;96.96;95415.88;5068136;28;20201;-66
2022/03/25 06:28:57;;;;;;;13.97;8.63;;;;;;;1.96;96.27;95410.13;5083364;28;20272;-66
2022/03/25 06:31:43;;;;;;;16.00;9.43;;;;;;;1.89;96.49;95405.53;5064494;28;20200;-66
2022/03/25 06:34:29;;;;;;;13.83;7.80;;;;;;;2.23;97.72;95406.56;5069521;28;20281;-66
2022/03/25 06:37:15;;;;;;;11.07;7.97;;;;;;;2.57;95.68;95412.19;5064432;28;20229;-66
2022/03/25 06:40:02;;;;;;;10.73;8.10;;;;;;;2.67;93.62;95410.56;5065493;28;20697;-66
2022/03/25 06:42:48;;;;;;;15.00;8.50;;;;;;;3.02;93.14;95421.94;5064821;28;20206;-67
2022/03/25 06:45:34;;;;;;;15.30;8.53;;;;;;;3.39;91.74;95416.63;5029759;28;20263;-66
2022/03/25 06:48:20;;;;;;;14.87;9.03;;;;;;;3.86;92.05;95412.38;5045675;28;20585;-66
2022/03/25 06:51:08;;;;;;;12.53;8.73;;;;;;;4.11;91.90;95399.34;5063238;28;20874;-66
2022/03/25 06:53:54;;;;;;;17.70;9.37;;;;;;;4.55;92.26;95418.13;5080497;28;20370;-66
2022/03/25 06:56:40;;;;;;;16.03;9.27;;;;;;;4.83;93.78;95417.78;5086350;28;20588;-66
2022/03/25 06:59:27;;;;;;;21.37;9.30;;;;;;;4.97;100.00;95405.22;5075701;28;20279;-66
2022/03/25 07:02:15;;;;;;;17.33;8.40;;;;;;;5.14;100.00;95413.09;5049242;28;20209;-66
2022/03/25 07:05:02;;;;;;;10.23;8.20;;;;;;;5.16;100.00;95418.09;5066436;28;20198;-66
2022/03/25 07:07:48;;;;;;;11.03;7.87;;;;;;;5.27;100.00;95414.06;5061776;28;20201;-66
2022/03/25 07:10:34;;;;;;;11.07;8.33;;;;;;;5.52;100.00;95424.47;5062973;28;20209;-66
2022/03/25 07:13:20;;;;;;;10.27;7.90;;;;;;;5.51;100.00;95422.97;5069718;28;20742;-67
2022/03/25 07:16:07;;;;;;;13.97;7.43;;;;;;;5.44;100.00;95421.13;5048469;28;20268;-67
2022/03/25 07:18:55;;;;;;;11.53;7.77;;;;;;;5.37;100.00;95423.94;5079834;28;20221;-67
2022/03/25 07:21:41;;;;;;;12.00;7.50;;;;;;;5.45;100.00;95430.78;5074117;28;20190;-67
2022/03/25 07:24:27;;;;;;;9.23;7.97;;;;;;;5.47;100.00;95427.66;5068262;28;20401;-66
2022/03/25 07:27:13;;;;;;;10.53;6.70;;;;;;;6.35;100.00;95434.28;5036330;28;20198;-66
2022/03/25 07:29:59;;;;;;;10.70;7.27;;;;;;;6.69;100.00;95437.47;5060550;28;20636;-66
2022/03/25 07:32:45;;;;;;;10.97;8.33;;;;;;;7.11;100.00;95437.34;5046604;28;20708;-66
2022/03/25 07:35:31;;;;;;;8.13;7.00;;;;;;;7.31;98.34;95435.34;5033504;28;20681;-67
2022/03/25 07:38:17;;;;;;;8.17;7.20;;;;;;;7.29;93.83;95429.59;5047813;28;20569;-66
2022/03/25 07:41:03;;;;;;;10.00;6.70;;;;;;;7.39;85.83;95430.50;5073429;28;20182;-66
2022/03/25 07:43:52;;;;;;;8.53;6.83;;;;;;;7.82;87.08;95425.56;5074465;28;20205;-66
2022/03/25 07:46:44;;;;;;;9.17;7.50;;;;;;;7.90;86.54;95435.09;5048422;28;20257;-67
2022/03/25 07:49:29;;;;;;;8.77;6.80;;;;;;;7.92;86.52;95430.00;5054974;28;20283;-67
2022/03/25 07:52:16;;;;;;;12.33;7.47;;;;;;;7.85;83.02;95429.41;5052342;28;20240;-67
2022/03/25 07:55:03;;;;;;;11.03;6.97;;;;;;;7.91;81.92;95425.75;5068698;28;20204;-67
2022/03/25 07:57:49;;;;;;;8.83;7.27;;;;;;;7.91;82.55;95433.91;5065632;28;20195;-67
2022/03/25 08:00:35;;;;;;;11.27;7.60;;;;;;;8.05;80.71;95430.84;5073794;28;21317;-66
2022/03/25 08:03:22;;;;;;;10.03;6.97;;;;;;;8.28;82.41;95436.06;5069313;28;20595;-67
2022/03/25 08:06:11;;;;;;;10.63;7.63;;;;;;;8.94;78.37;95423.75;5077524;28;20221;-66
2022/03/25 08:08:59;;;;;;;9.23;6.20;;;;;;;9.14;76.61;95430.53;5076473;28;20198;-67
2022/03/25 08:11:47;;;;;;;9.93;6.37;;;;;;;9.53;75.09;95434.81;5067913;28;20197;-67
2022/03/25 08:14:34;;;;;;;10.47;7.03;;;;;;;9.30;75.56;95430.44;5055936;28;20193;-67
2022/03/25 08:17:21;;;;;;;13.97;6.87;;;;;;;9.63;75.69;95428.25;5054166;28;20228;-67
2022/03/25 08:20:08;;;;;;;14.20;6.83;;;;;;;9.94;74.02;95436.63;5069025;28;20247;-67
2022/03/25 08:22:56;;;;;;;12.63;6.43;;;;;;;10.15;72.13;95436.69;5063056;28;20213;-67
2022/03/25 08:28:47;;;;;;;7.63;6.67;;;;;;;10.19;71.71;95442.81;5081076;28;20196;-67
2022/03/25 08:31:34;;;;;;;11.50;6.37;;;;;;;10.36;71.90;95444.16;5063798;28;20198;-67
2022/03/25 08:34:21;;;;;;;13.47;6.60;;;;;;;10.79;68.11;95429.78;5068691;28;20189;-67
2022/03/25 08:37:07;;;;;;;8.63;5.87;;;;;;;11.06;67.15;95443.63;5066233;28;20246;-64
2022/03/25 08:39:53;;;;;;;10.17;6.47;;;;;;;11.10;65.15;95438.75;5055016;28;20208;-64
2022/03/25 08:42:38;;;;;;;11.87;6.90;;;;;;;11.21;63.03;95441.09;5077069;28;20232;-64
2022/03/25 08:45:25;;;;;;;20.07;6.73;;;;;;;11.47;60.82;95445.94;5067081;28;20201;-64
2022/03/25 08:48:11;;;;;;;20.33;6.17;;;;;;;11.59;57.86;95442.34;5087183;28;20596;-67
2022/03/25 08:50:57;;;;;;;36.50;7.77;;;;;;;11.93;57.60;95433.97;5064023;28;20194;-67
2022/03/25 08:53:43;;;;;;;16.67;7.07;;;;;;;11.99;53.97;95445.84;5076359;28;20260;-66
2022/03/25 08:56:29;;;;;;;13.70;6.50;;;;;;;12.34;54.28;95443.63;5083067;28;20695;-67
2022/03/25 08:59:15;;;;;;;9.53;5.73;;;;;;;12.61;53.82;95440.13;5074316;28;20200;-66
2022/03/25 09:02:02;;;;;;;11.27;5.90;;;;;;;12.70;52.20;95440.13;5080693;28;20249;-61
2022/03/25 09:04:48;;;;;;;10.50;6.57;;;;;;;12.92;51.20;95437.97;5069782;28;20593;-62
2022/03/25 09:07:36;;;;;;;9.87;5.80;;;;;;;13.19;49.90;95443.44;5059630;28;20193;-62
2022/03/25 09:10:22;;;;;;;11.00;5.43;;;;;;;13.21;50.29;95435.53;5063295;28;20660;-63
2022/03/25 09:13:07;;;;;;;9.33;5.67;;;;;;;13.26;50.17;95440.38;5071819;28;20226;-63
2022/03/25 09:15:53;;;;;;;15.50;6.57;;;;;;;13.23;50.10;95433.09;5054179;28;20279;-62
2022/03/25 09:18:39;;;;;;;12.87;7.17;;;;;;;13.49;48.65;95436.94;5080411;28;20298;-62
2022/03/25 09:21:25;;;;;;;12.33;7.77;;;;;;;13.62;47.35;95434.00;5078616;28;20194;-62
2022/03/25 09:24:12;;;;;;;8.53;7.53;;;;;;;13.65;46.36;95433.84;5084226;28;20204;-62
2022/03/25 09:26:58;;;;;;;10.37;7.50;;;;;;;13.77;45.22;95435.63;5076103;28;20217;-62
2022/03/25 09:29:45;;;;;;;9.13;7.07;;;;;;;14.02;45.05;95424.22;5069478;28;20798;-62
2022/03/25 09:32:30;;;;;;;9.30;7.40;;;;;;;14.09;45.18;95434.84;5086201;28;20214;-62
2022/03/25 09:35:16;;;;;;;11.90;7.60;;;;;;;14.33;45.93;95435.66;5072242;28;20267;-62
2022/03/25 09:38:03;;;;;;;11.53;7.30;;;;;;;14.15;44.25;95437.72;5079187;28;20662;-62
2022/03/25 09:40:51;;;;;;;10.07;6.90;;;;;;;14.38;45.15;95436.97;5073148;28;20227;-62
2022/03/25 09:43:38;;;;;;;10.60;8.47;;;;;;;14.16;43.88;95439.22;5045267;28;20222;-62
2022/03/25 09:46:25;;;;;;;11.57;7.23;;;;;;;14.27;43.58;95440.25;5070131;28;20232;-63
2022/03/25 09:49:11;;;;;;;13.20;7.83;;;;;;;14.28;43.27;95427.28;5070962;28;20663;-62
2022/03/25 09:51:59;;;;;;;16.27;7.23;;;;;;;14.57;43.31;95440.34;5071908;28;20213;-62
2022/03/25 09:54:45;;;;;;;10.13;8.40;;;;;;;14.84;42.49;95435.41;5055171;28;20656;-63
2022/03/25 09:57:32;;;;;;;13.30;7.77;;;;;;;14.99;43.43;95435.41;5057094;28;20228;-62
2022/03/25 10:00:19;;;;;;;11.60;7.30;;;;;;;15.16;41.73;95430.97;5059779;28;20197;-62
2022/03/25 10:03:04;;;;;;;18.37;8.50;;;;;;;15.36;40.90;95434.56;5056488;28;20213;-62
2022/03/25 10:05:58;;;;;;;13.57;8.17;;;;;;;15.50;40.75;95424.81;5038913;28;21574;-63
2022/03/25 10:08:53;;;;;;;17.50;8.90;;;;;;;15.49;40.87;95421.31;5033153;28;20296;-62
2022/03/25 10:11:39;;;;;;;21.80;8.17;;;;;;;15.61;40.40;95425.00;5068813;28;20202;-62
2022/03/25 10:14:29;;;;;;;13.23;9.20;;;;;;;15.87;38.47;95423.13;5072453;28;20675;-62
2022/03/25 10:17:15;;;;;;;21.20;8.73;;;;;;;15.97;38.91;95427.28;5054709;28;21004;-65
2022/03/25 10:20:08;;;;;;;23.03;9.50;;;;;;;15.96;38.99;95425.00;5069986;28;20193;-65
2022/03/25 10:23:04;;;;;;;16.47;11.00;;;;;;;15.53;34.59;95421.88;5044733;28;20218;-65
2022/03/25 10:25:53;;;;;;;14.27;10.63;;;;;;;15.91;34.23;95418.19;5051818;28;20186;-65
2022/03/25 10:28:44;;;;;;;19.47;11.50;;;;;;;15.78;32.88;95420.50;5055374;28;20193;-65
2022/03/25 10:31:30;;;;;;;14.50;11.00;;;;;;;15.68;32.29;95414.34;5055122;28;20201;-65
2022/03/25 10:34:19;;;;;;;18.43;11.80;;;;;;;15.61;31.81;95414.00;5070879;28;20249;-65
2022/03/25 10:37:07;;;;;;;18.57;11.97;;;;;;;15.56;32.14;95425.69;5081483;28;20730;-65
2022/03/25 10:39:53;;;;;;;19.60;11.63;;;;;;;15.73;33.24;95412.16;5069795;28;20193;-65
2022/03/25 10:43:03;;;;;;;16.57;11.70;;;;;;;15.67;30.89;95417.59;5065735;28;20248;-65
2022/03/25 10:45:49;;;;;;;17.23;12.30;;;;;;;15.61;31.13;95414.75;5069900;28;20634;-62
2022/03/25 10:48:35;;;;;;;17.43;12.43;;;;;;;15.75;31.47;95410.44;5075823;28;20796;-63
2022/03/25 10:51:21;;;;;;;17.30;11.53;;;;;;;15.98;30.45;95412.28;5070918;28;20236;-65
2022/03/25 10:54:11;;;;;;;15.07;12.10;;;;;;;15.92;30.40;95408.69;5074454;28;20216;-65
2022/03/25 10:57:00;;;;;;;15.47;12.67;;;;;;;15.86;29.83;95407.84;5066749;28;20225;-65
2022/03/25 10:59:57;;;;;;;15.93;12.50;;;;;;;16.08;30.61;95410.94;5062201;28;20221;-65
2022/03/25 11:02:45;;;;;;;17.80;12.40;;;;;;;16.22;29.90;95393.56;5083709;28;20303;-65
2022/03/25 11:05:32;;;;;;;18.30;12.37;;;;;;;16.08;30.05;95393.63;5070699;28;20677;-65
2022/03/25 11:08:18;;;;;;;22.07;13.33;;;;;;;16.34;30.58;95405.50;5066078;28;20190;-65
2022/03/25 11:11:04;;;;;;;21.30;13.20;;;;;;;16.08;31.07;95393.63;5058702;28;20213;-65
2022/03/25 11:13:50;;;;;;;20.00;13.80;;;;;;;15.86;31.15;95398.81;5063574;28;20217;-65
2022/03/25 11:16:41;;;;;;;22.17;14.67;;;;;;;16.13;31.50;95390.94;5061465;28;20221;-65
2022/03/25 11:19:27;;;;;;;18.87;13.97;;;;;;;16.20;30.53;95393.31;5066421;28;20284;-65
2022/03/25 11:22:17;;;;;;;16.70;12.10;;;;;;;16.31;30.00;95398.94;5074323;28;20713;-65
2022/03/25 11:25:04;;;;;;;15.17;12.47;;;;;;;16.65;30.50;95387.09;5071180;28;20193;-65
2022/03/25 11:28:03;;;;;;;15.50;12.63;;;;;;;16.45;29.41;95389.09;5054484;28;20655;-66
2022/03/25 11:31:01;;;;;;;17.50;13.10;;;;;;;16.44;28.49;95384.81;5046231;28;20584;-65
2022/03/25 11:34:09;;;;;;;15.97;13.73;;;;;;;16.45;29.49;95389.09;5063433;28;20632;-65
2022/03/25 11:37:31;;;;;;;19.00;13.60;;;;;;;16.32;29.04;95377.66;5058370;28;20213;-65
2022/03/25 11:40:25;;;;;;;18.53;13.07;;;;;;;16.37;28.60;95383.25;5065490;28;20281;-65
2022/03/25 11:43:22;;;;;;;21.17;13.07;;;;;;;16.52;29.44;95372.16;5052022;28;20691;-65
2022/03/25 11:46:09;;;;;;;14.60;12.23;;;;;;;16.78;29.66;95364.69;5066391;28;20689;-66
2022/03/25 11:48:55;;;;;;;18.13;12.67;;;;;;;17.09;28.77;95366.72;5061207;28;20291;-66
2022/03/25 11:51:41;;;;;;;20.10;13.60;;;;;;;16.86;28.80;95363.75;5053315;28;20802;-65
2022/03/25 11:54:42;;;;;;;21.87;14.93;;;;;;;16.61;28.75;95367.22;5060156;28;20582;-65
2022/03/25 11:57:34;;;;;;;20.53;14.63;;;;;;;16.52;28.49;95359.13;5065289;28;20235;-65
2022/03/25 12:00:30;;;;;;;17.20;13.90;;;;;;;16.73;29.02;95357.84;5055340;28;20189;-65
2022/03/25 12:03:18;;;;;;;16.90;13.57;;;;;;;16.58;27.94;95354.41;5071031;28;20217;-65
2022/03/25 12:06:04;;;;;;;21.80;14.10;;;;;;;16.51;28.56;95346.56;5068440;28;20185;-65
2022/03/25 12:08:59;;;;;;;19.90;14.20;;;;;;;16.83;28.30;95350.91;5052448;28;20315;-65
2022/03/25 12:11:57;;;;;;;20.80;14.83;;;;;;;16.92;28.15;95350.75;5074989;28;20323;-65
2022/03/25 12:15:06;;;;;;;20.53;14.67;;;;;;;16.83;26.84;95350.91;5076486;28;20623;-65
2022/03/25 12:17:55;;;;;;;19.07;13.50;;;;;;;16.77;27.52;95352.88;5079661;28;20837;-65
2022/03/25 12:20:41;;;;;;;21.03;14.50;;;;;;;16.70;28.02;95347.78;5080617;28;20190;-65
2022/03/25 12:23:27;;;;;;;17.60;14.73;;;;;;;17.18;28.33;95342.47;5080890;28;20209;-65
2022/03/25 12:26:13;;;;;;;22.03;14.23;;;;;;;17.46;28.91;95348.97;5061799;28;20197;-65
2022/03/25 12:28:59;;;;;;;21.10;14.80;;;;;;;17.02;27.88;95345.81;5065572;28;20220;-65
2022/03/25 12:31:52;;;;;;;21.63;14.53;;;;;;;16.93;27.95;95332.22;5079669;28;20189;-65
2022/03/25 12:34:44;;;;;;;23.70;15.27;;;;;;;16.97;27.79;95337.50;5073739;28;20198;-65
2022/03/25 12:37:39;;;;;;;19.17;15.20;;;;;;;16.56;27.00;95345.13;5055291;28;20260;-65
2022/03/25 12:40:33;;;;;;;22.77;14.67;;;;;;;16.69;28.10;95335.25;5072623;28;20216;-65
2022/03/25 12:43:28;;;;;;;22.63;14.10;;;;;;;16.93;27.87;95337.72;5064055;28;20267;-65
2022/03/25 12:46:16;;;;;;;24.53;14.63;;;;;;;16.95;27.18;95331.72;5071843;28;20632;-65
2022/03/25 12:49:04;;;;;;;15.37;13.50;;;;;;;16.91;27.30;95329.19;5054087;28;20197;-65
2022/03/25 12:51:56;;;;;;;20.90;14.90;;;;;;;16.61;26.24;95331.38;5072928;28;20200;-65
2022/03/25 12:54:42;;;;;;;18.87;14.40;;;;;;;16.61;26.48;95325.88;5082865;28;20192;-65
2022/03/25 12:57:36;;;;;;;20.67;14.77;;;;;;;16.62;26.59;95329.38;5058787;28;20686;-66
2022/03/25 13:00:22;;;;;;;20.30;14.60;;;;;;;16.62;26.75;95327.41;5080861;28;20623;-66
2022/03/25 13:03:12;;;;;;;21.87;16.00;;;;;;;16.75;26.88;95316.72;5075941;28;20634;-66
2022/03/25 13:05:59;;;;;;;20.23;14.57;;;;;;;16.89;26.02;95315.88;5095552;28;20181;-66